createdAt,value
2023-03-13T00:02:16.540Z,81.97
2023-03-13T00:04:44.712Z,82.29
2023-03-13T00:07:13.864Z,82.54
2023-03-13T00:09:42.014Z,82.68
2023-03-13T00:12:10.365Z,82.53
2023-03-13T00:14:39.736Z,82.75
2023-03-13T00:17:07.621Z,82.89
2023-03-13T00:19:35.546Z,83.56
2023-03-13T00:22:03.388Z,83.02
2023-03-13T00:24:31.272Z,83.08
2023-03-13T00:27:03.184Z,82.92
2023-03-13T00:29:31.640Z,83.08
2023-03-13T00:32:02.052Z,84.54
2023-03-13T00:34:30.139Z,84.14
2023-03-13T00:36:59.689Z,84.06
2023-03-13T00:39:29.006Z,84.13
2023-03-13T00:41:56.864Z,83.34
2023-03-13T00:44:24.702Z,83.61
2023-03-13T00:46:52.610Z,84.29
2023-03-13T00:49:21.840Z,84.62
2023-03-13T00:51:49.722Z,84.01
2023-03-13T00:54:17.543Z,83.74
2023-03-13T00:56:45.420Z,83.61
2023-03-13T00:59:13.294Z,83.95
2023-03-13T01:01:42.767Z,84.26
2023-03-13T01:04:12.798Z,84.09
2023-03-13T01:06:43.369Z,84.01
2023-03-13T01:09:13.741Z,84.27
2023-03-13T01:11:44.080Z,83.03
2023-03-13T01:14:14.741Z,82.48
2023-03-13T01:16:43.430Z,81.79
2023-03-13T01:19:13.810Z,82.73
2023-03-13T01:21:43.744Z,82.12
2023-03-13T01:24:11.896Z,83.63
2023-03-13T01:26:39.845Z,82.60
2023-03-13T01:29:07.668Z,82.39
2023-03-13T01:31:36.904Z,82.25
2023-03-13T01:34:08.053Z,82.42
2023-03-13T01:36:37.779Z,82.69
2023-03-13T01:39:07.648Z,82.74
2023-03-13T01:41:35.988Z,81.72
2023-03-13T01:44:04.213Z,82.50
2023-03-13T01:46:38.364Z,82.81
2023-03-13T01:49:15.391Z,82.53
2023-03-13T01:52:26.991Z,82.07
2023-03-13T01:55:06.161Z,81.63
2023-03-13T01:57:38.460Z,81.09
2023-03-13T02:00:10.827Z,81.89
2023-03-13T02:02:45.250Z,81.12
2023-03-13T02:05:14.648Z,80.68
2023-03-13T02:07:46.935Z,80.70
2023-03-13T02:10:18.531Z,80.36
2023-03-13T02:12:46.771Z,80.00
2023-03-13T02:15:17.436Z,80.29
2023-03-13T02:17:46.883Z,80.32
2023-03-13T02:20:16.147Z,80.03
2023-03-13T02:22:50.855Z,80.18
2023-03-13T02:25:31.366Z,80.34
2023-03-13T02:28:04.432Z,80.01
2023-03-13T02:30:34.925Z,80.78
2023-03-13T02:33:04.865Z,79.38
2023-03-13T02:35:34.162Z,79.46
2023-03-13T02:38:07.092Z,79.85
2023-03-13T02:40:40.456Z,80.28
2023-03-13T02:43:14.067Z,79.66
2023-03-13T02:45:42.254Z,79.84
2023-03-13T02:48:11.558Z,79.01
2023-03-13T02:50:39.514Z,78.84
2023-03-13T02:53:08.691Z,78.92
2023-03-13T02:55:41.895Z,79.18
2023-03-13T02:58:12.283Z,78.99
2023-03-13T03:00:40.206Z,79.81
2023-03-13T03:03:08.189Z,79.24
2023-03-13T03:05:37.985Z,78.74
2023-03-13T03:08:06.004Z,79.95
2023-03-13T03:10:36.502Z,79.38
2023-03-13T03:13:06.348Z,79.84
2023-03-13T03:15:34.273Z,79.81
2023-03-13T03:18:02.125Z,78.49
2023-03-13T03:20:30.548Z,78.66
2023-03-13T03:22:58.485Z,78.52
2023-03-13T03:25:27.782Z,79.87
2023-03-13T03:27:55.668Z,78.91
2023-03-13T03:30:24.926Z,80.48
2023-03-13T03:32:53.343Z,79.64
2023-03-13T03:35:23.209Z,79.90
2023-03-13T03:37:51.103Z,79.22
2023-03-13T03:40:21.377Z,80.06
2023-03-13T03:42:49.411Z,79.48
2023-03-13T03:45:17.419Z,79.65
2023-03-13T03:47:46.632Z,80.09
2023-03-13T03:50:14.530Z,80.20
2023-03-13T03:52:52.475Z,79.57
2023-03-13T03:55:21.362Z,79.79
2023-03-13T03:57:49.276Z,80.14
2023-03-13T04:00:27.771Z,80.03
2023-03-13T04:02:57.111Z,79.69
2023-03-13T04:05:25.394Z,78.90
2023-03-13T04:07:53.555Z,78.56
2023-03-13T04:10:21.694Z,78.86
2023-03-13T04:12:49.695Z,79.23
2023-03-13T04:15:17.706Z,79.67
2023-03-13T04:17:45.869Z,78.90
2023-03-13T04:20:16.390Z,79.16
2023-03-13T04:22:44.940Z,79.20
2023-03-13T04:25:13.852Z,79.85
2023-03-13T04:27:42.417Z,80.42
2023-03-13T04:30:12.109Z,79.41
2023-03-13T04:33:00.408Z,79.60
2023-03-13T04:35:43.043Z,80.03
2023-03-13T04:38:23.293Z,80.68
2023-03-13T04:41:29.498Z,80.88
2023-03-13T04:44:10.499Z,80.99
2023-03-13T04:46:56.698Z,80.56
2023-03-13T04:49:47.699Z,80.04
2023-03-13T04:52:40.585Z,81.25
2023-03-13T04:55:15.905Z,80.61
2023-03-13T04:57:54.754Z,82.16
2023-03-13T05:00:45.884Z,81.73
2023-03-13T05:03:33.866Z,81.98
2023-03-13T05:06:24.359Z,82.16
2023-03-13T05:09:13.850Z,81.14
2023-03-13T05:12:00.397Z,81.77
2023-03-13T05:14:46.632Z,82.31
2023-03-13T05:17:35.375Z,81.45
2023-03-13T05:20:22.165Z,81.63
2023-03-13T05:22:55.682Z,82.25
2023-03-13T05:25:43.504Z,81.92
2023-03-13T05:28:37.336Z,82.56
2023-03-13T05:31:22.037Z,83.11
2023-03-13T05:33:50.036Z,81.92
2023-03-13T05:36:45.699Z,82.97
2023-03-13T05:39:31.969Z,84.06
2023-03-13T05:42:21.498Z,83.49
2023-03-13T05:45:10.909Z,83.00
2023-03-13T05:47:58.829Z,83.01
2023-03-13T05:50:58.969Z,83.28
2023-03-13T05:53:49.994Z,83.77
2023-03-13T05:56:29.053Z,83.77
2023-03-13T05:59:13.758Z,84.18
2023-03-13T06:02:08.870Z,83.92
2023-03-13T06:04:42.025Z,83.77
2023-03-13T06:07:10.070Z,84.10
2023-03-13T06:09:38.021Z,84.51
2023-03-13T06:12:06.635Z,83.34
2023-03-13T06:14:36.040Z,83.01
2023-03-13T06:17:25.543Z,84.16
2023-03-13T06:19:53.532Z,84.02
2023-03-13T06:22:21.428Z,84.16
2023-03-13T06:24:49.683Z,85.13
2023-03-13T06:27:17.646Z,84.17
2023-03-13T06:29:46.849Z,84.69
2023-03-13T06:32:14.832Z,83.47
2023-03-13T06:34:42.675Z,83.96
2023-03-13T06:37:10.715Z,83.21
2023-03-13T06:39:38.715Z,83.18
2023-03-13T06:42:07.683Z,83.77
2023-03-13T06:44:35.563Z,83.46
2023-03-13T06:47:05.161Z,82.51
2023-03-13T06:49:33.216Z,82.76
2023-03-13T06:52:01.124Z,83.97
2023-03-13T06:54:29.068Z,82.66
2023-03-13T06:56:56.932Z,81.79
2023-03-13T06:59:24.791Z,82.75
2023-03-13T07:01:52.688Z,82.84
2023-03-13T07:04:22.008Z,82.13
2023-03-13T07:06:49.990Z,82.88
2023-03-13T07:09:19.989Z,82.63
2023-03-13T07:11:47.974Z,83.00
2023-03-13T07:14:17.638Z,84.35
2023-03-13T07:16:46.574Z,83.21
2023-03-13T07:19:15.273Z,83.85
2023-03-13T07:21:45.102Z,84.22
2023-03-13T07:24:13.029Z,84.09
2023-03-13T07:26:46.533Z,84.04
2023-03-13T07:29:22.275Z,83.50
2023-03-13T07:31:50.212Z,84.84
2023-03-13T07:34:18.424Z,85.36
2023-03-13T07:36:47.680Z,85.27
2023-03-13T07:39:15.584Z,85.54
2023-03-13T07:41:43.496Z,86.33
2023-03-13T07:44:16.688Z,86.08
2023-03-13T07:46:44.570Z,85.62
2023-03-13T07:49:12.466Z,85.59
2023-03-13T07:51:43.868Z,85.46
2023-03-13T07:54:13.721Z,85.97
2023-03-13T07:56:41.774Z,84.42
2023-03-13T07:59:10.368Z,84.93
2023-03-13T08:01:38.461Z,86.19
2023-03-13T08:04:06.785Z,85.71
2023-03-13T08:06:36.757Z,86.05
2023-03-13T08:09:05.619Z,86.32
2023-03-13T08:11:35.242Z,86.66
2023-03-13T08:14:03.582Z,87.69
2023-03-13T08:16:34.260Z,87.49
2023-03-13T08:19:05.834Z,89.75
2023-03-13T08:21:35.277Z,87.81
2023-03-13T08:24:06.853Z,88.38
2023-03-13T08:26:38.045Z,88.65
2023-03-13T08:29:08.679Z,89.11
2023-03-13T08:31:38.350Z,88.24
2023-03-13T08:34:06.272Z,89.52
2023-03-13T08:36:35.853Z,90.75
2023-03-13T08:39:06.370Z,92.23
2023-03-13T08:41:37.577Z,92.18
2023-03-13T08:44:06.481Z,90.63
2023-03-13T08:46:36.155Z,91.19
2023-03-13T08:49:05.721Z,90.07
2023-03-13T08:51:34.214Z,88.94
2023-03-13T08:54:03.412Z,88.71
2023-03-13T08:56:32.503Z,90.72
2023-03-13T08:59:03.614Z,90.83
2023-03-13T09:01:33.152Z,89.21
2023-03-13T09:04:04.240Z,88.49
2023-03-13T09:06:33.543Z,88.38
2023-03-13T09:09:02.135Z,88.78
2023-03-13T09:11:30.078Z,89.13
2023-03-13T09:13:59.721Z,87.83
2023-03-13T09:16:30.954Z,87.79
2023-03-13T09:18:59.375Z,87.73
2023-03-13T09:21:29.066Z,88.45
2023-03-13T09:23:57.294Z,89.09
2023-03-13T09:26:26.054Z,88.93
2023-03-13T09:28:54.366Z,88.84
2023-03-13T09:31:24.195Z,88.78
2023-03-13T09:33:54.298Z,88.80
2023-03-13T09:36:23.828Z,87.59
2023-03-13T09:38:53.032Z,88.48
2023-03-13T09:41:27.916Z,90.08
2023-03-13T09:44:03.186Z,89.56
2023-03-13T09:46:38.752Z,89.30
2023-03-13T09:49:17.297Z,89.60
2023-03-13T09:51:52.340Z,88.80
2023-03-13T09:54:27.092Z,88.66
2023-03-13T09:57:00.876Z,88.07
2023-03-13T09:59:38.882Z,87.47
2023-03-13T10:02:21.411Z,87.46
2023-03-13T10:04:54.840Z,86.58
2023-03-13T10:07:22.845Z,87.29
2023-03-13T10:09:50.747Z,87.80
2023-03-13T10:12:21.759Z,87.79
2023-03-13T10:15:01.703Z,87.04
2023-03-13T10:17:34.327Z,87.72
2023-03-13T10:20:18.172Z,87.62
2023-03-13T10:22:51.114Z,87.55
2023-03-13T10:25:28.105Z,88.17
2023-03-13T10:27:56.245Z,86.84
2023-03-13T10:30:27.038Z,86.62
2023-03-13T10:32:58.646Z,86.69
2023-03-13T10:35:34.566Z,86.97
2023-03-13T10:38:06.382Z,86.21
2023-03-13T10:40:34.357Z,86.19
2023-03-13T10:43:05.199Z,86.99
2023-03-13T10:45:36.572Z,86.66
2023-03-13T10:48:12.684Z,84.73
2023-03-13T10:50:45.796Z,84.06
2023-03-13T10:53:26.950Z,83.22
2023-03-13T10:55:56.808Z,82.32
2023-03-13T10:58:29.986Z,82.53
2023-03-13T11:01:15.633Z,80.69
2023-03-13T11:03:44.428Z,79.69
2023-03-13T11:06:26.205Z,82.65
2023-03-13T11:09:04.953Z,81.67
2023-03-13T11:11:44.173Z,80.68
2023-03-13T11:14:17.308Z,79.57
2023-03-13T11:16:50.338Z,78.64
2023-03-13T11:19:42.564Z,77.14
2023-03-13T11:22:29.006Z,75.94
2023-03-13T11:25:12.061Z,75.38
2023-03-13T11:27:45.805Z,75.73
2023-03-13T11:30:26.523Z,76.07
2023-03-13T11:32:57.107Z,75.85
2023-03-13T11:35:39.938Z,77.78
2023-03-13T11:38:19.206Z,76.28
2023-03-13T11:40:59.841Z,75.88
2023-03-13T11:43:49.068Z,74.58
2023-03-13T11:46:28.711Z,76.98
2023-03-13T11:49:14.833Z,75.76
2023-03-13T11:51:55.926Z,74.77
2023-03-13T11:54:44.979Z,75.76
2023-03-13T11:57:18.106Z,75.19
2023-03-13T11:59:54.229Z,74.91
2023-03-13T12:02:29.337Z,73.98
2023-03-13T12:05:02.447Z,74.52
2023-03-13T12:07:35.410Z,74.95
2023-03-13T12:10:11.324Z,75.81
2023-03-13T12:12:44.465Z,75.05
2023-03-13T12:15:21.659Z,73.87
2023-03-13T12:17:54.705Z,73.17
2023-03-13T12:20:26.484Z,73.71
2023-03-13T12:23:05.040Z,73.77
2023-03-13T12:25:39.819Z,74.29
2023-03-13T12:28:24.930Z,72.80
2023-03-13T12:31:01.463Z,72.51
2023-03-13T12:33:36.342Z,71.48
2023-03-13T12:36:10.752Z,71.67
2023-03-13T12:38:42.593Z,71.44
2023-03-13T12:41:20.717Z,71.16
2023-03-13T12:44:07.179Z,70.59
2023-03-13T12:46:44.147Z,69.81
2023-03-13T12:49:41.196Z,69.74
2023-03-13T12:52:42.035Z,69.73
2023-03-13T12:55:45.928Z,67.69
2023-03-13T12:58:30.693Z,67.38
2023-03-13T13:01:03.895Z,67.56
2023-03-13T13:03:36.590Z,66.08
2023-03-13T13:06:10.062Z,67.38
2023-03-13T13:08:41.860Z,65.86
2023-03-13T13:11:48.995Z,66.47
2023-03-13T13:14:59.380Z,64.89
2023-03-13T13:17:50.301Z,65.78
2023-03-13T13:20:36.811Z,66.34
2023-03-13T13:23:37.115Z,66.26
2023-03-13T13:26:48.464Z,65.44
2023-03-13T13:29:55.293Z,64.91
2023-03-13T13:32:49.550Z,64.88
2023-03-13T13:35:32.650Z,64.12
2023-03-13T13:38:29.218Z,64.11
2023-03-13T13:41:02.407Z,64.37
2023-03-13T13:43:33.334Z,63.58
2023-03-13T13:46:12.022Z,63.64
2023-03-13T13:48:43.269Z,63.34
2023-03-13T13:51:28.492Z,62.86
2023-03-13T13:54:00.492Z,61.99
2023-03-13T13:56:44.897Z,62.40
2023-03-13T13:59:43.831Z,62.53
2023-03-13T14:02:22.224Z,61.48
2023-03-13T14:04:56.142Z,61.87
2023-03-13T14:07:29.863Z,62.61
2023-03-13T14:10:16.164Z,62.59
2023-03-13T14:12:48.378Z,61.96
2023-03-13T14:15:20.061Z,62.64
2023-03-13T14:17:50.104Z,62.35
2023-03-13T14:20:33.743Z,61.77
2023-03-13T14:23:04.665Z,61.36
2023-03-13T14:25:45.157Z,62.13
2023-03-13T14:28:19.010Z,61.10
2023-03-13T14:30:48.633Z,62.62
2023-03-13T14:33:16.747Z,62.42
2023-03-13T14:35:46.647Z,62.27
2023-03-13T14:38:19.892Z,63.10
2023-03-13T14:40:48.089Z,63.14
2023-03-13T14:43:23.545Z,63.51
2023-03-13T14:45:52.326Z,63.09
2023-03-13T14:48:24.692Z,63.18
2023-03-13T14:51:14.317Z,62.95
2023-03-13T14:53:56.110Z,62.88
2023-03-13T14:56:33.093Z,63.25
2023-03-13T14:59:16.881Z,63.69
2023-03-13T15:01:45.785Z,62.93
2023-03-13T15:04:13.738Z,63.16
2023-03-13T15:06:43.378Z,63.91
2023-03-13T15:09:21.780Z,63.54
2023-03-13T15:12:00.575Z,62.31
2023-03-13T15:14:38.146Z,63.52
2023-03-13T15:17:13.989Z,62.84
2023-03-13T15:19:42.224Z,61.49
2023-03-13T15:22:15.950Z,61.71
2023-03-13T15:24:48.453Z,62.23
2023-03-13T15:27:24.029Z,61.80
2023-03-13T15:29:52.388Z,62.93
2023-03-13T15:32:27.743Z,61.57
2023-03-13T15:34:58.466Z,61.32
2023-03-13T15:37:28.939Z,62.05
2023-03-13T15:39:58.148Z,62.65
2023-03-13T15:42:26.509Z,62.41
2023-03-13T15:44:54.368Z,62.49
2023-03-13T15:47:23.282Z,62.97
2023-03-13T15:49:51.197Z,62.77
2023-03-13T15:52:20.442Z,62.71
2023-03-13T15:54:51.235Z,62.48
2023-03-13T15:57:23.162Z,62.96
2023-03-13T15:59:51.300Z,62.30
2023-03-13T16:02:22.207Z,62.26
2023-03-13T16:04:52.304Z,63.11
2023-03-13T16:07:22.038Z,62.81
2023-03-13T16:09:51.296Z,63.29
2023-03-13T16:12:19.251Z,63.08
2023-03-13T16:14:47.186Z,62.93
2023-03-13T16:17:17.760Z,63.23
2023-03-13T16:19:47.120Z,64.55
2023-03-13T16:22:15.676Z,64.06
2023-03-13T16:24:43.571Z,64.50
2023-03-13T16:27:15.290Z,63.68
2023-03-13T16:29:43.308Z,64.06
2023-03-13T16:32:13.545Z,65.92
2023-03-13T16:34:41.513Z,65.28
2023-03-13T16:37:14.320Z,64.72
2023-03-13T16:39:42.961Z,64.00
2023-03-13T16:42:11.734Z,65.32
2023-03-13T16:44:41.804Z,64.81
2023-03-13T16:47:18.572Z,65.12
2023-03-13T16:49:47.633Z,65.17
2023-03-13T16:52:16.934Z,64.69
2023-03-13T16:54:45.405Z,65.52
2023-03-13T16:57:14.707Z,64.97
2023-03-13T16:59:44.206Z,65.56
2023-03-13T17:02:17.209Z,65.39
2023-03-13T17:04:45.627Z,65.12
2023-03-13T17:07:19.282Z,65.92
2023-03-13T17:09:47.755Z,65.56
2023-03-13T17:12:15.918Z,65.72
2023-03-13T17:14:45.590Z,65.54
2023-03-13T17:17:15.766Z,64.97
2023-03-13T17:19:43.812Z,65.48
2023-03-13T17:22:13.751Z,65.56
2023-03-13T17:24:42.327Z,66.84
2023-03-13T17:27:13.397Z,67.30
2023-03-13T17:29:42.208Z,66.66
2023-03-13T17:32:13.958Z,66.32
2023-03-13T17:34:42.716Z,66.74
2023-03-13T17:37:16.799Z,66.94
2023-03-13T17:39:45.189Z,67.37
2023-03-13T17:42:13.579Z,66.73
2023-03-13T17:44:42.450Z,67.33
2023-03-13T17:47:15.188Z,67.15
2023-03-13T17:49:43.855Z,67.84
2023-03-13T17:52:14.957Z,67.36
2023-03-13T17:54:43.485Z,67.13
2023-03-13T17:57:16.701Z,67.82
2023-03-13T17:59:44.906Z,67.62
2023-03-13T18:02:16.981Z,67.91
2023-03-13T18:04:45.680Z,67.50
2023-03-13T18:07:22.345Z,68.00
2023-03-13T18:09:50.351Z,68.68
2023-03-13T18:12:18.977Z,68.34
2023-03-13T18:14:47.272Z,68.26
2023-03-13T18:17:19.376Z,68.36
2023-03-13T18:19:48.127Z,68.69
2023-03-13T18:22:17.545Z,67.99
2023-03-13T18:24:46.245Z,69.38
2023-03-13T18:27:16.121Z,68.13
2023-03-13T18:29:45.333Z,68.29
2023-03-13T18:32:14.763Z,68.09
2023-03-13T18:34:44.942Z,68.36
2023-03-13T18:37:21.619Z,68.26
2023-03-13T18:39:51.286Z,68.41
2023-03-13T18:42:19.925Z,68.52
2023-03-13T18:44:48.090Z,68.22
2023-03-13T18:47:18.287Z,68.42
2023-03-13T18:49:50.064Z,68.32
2023-03-13T18:52:18.493Z,68.09
2023-03-13T18:54:46.541Z,67.93
2023-03-13T18:57:16.973Z,68.10
2023-03-13T18:59:45.364Z,67.64
2023-03-13T19:02:15.274Z,69.00
2023-03-13T19:04:43.289Z,69.11
2023-03-13T19:07:19.883Z,68.40
2023-03-13T19:09:47.806Z,68.26
2023-03-13T19:12:16.515Z,68.46
2023-03-13T19:14:44.597Z,68.19
2023-03-13T19:17:17.690Z,68.14
2023-03-13T19:19:45.602Z,68.04
2023-03-13T19:22:15.328Z,67.98
2023-03-13T19:24:43.313Z,68.25
2023-03-13T19:27:16.773Z,68.09
2023-03-13T19:29:45.302Z,68.78
2023-03-13T19:32:15.145Z,69.40
2023-03-13T19:34:43.085Z,68.88
2023-03-13T19:37:14.717Z,68.55
2023-03-13T19:39:44.295Z,68.08
2023-03-13T19:42:12.301Z,68.23
2023-03-13T19:44:41.407Z,68.04
2023-03-13T19:47:14.666Z,68.73
2023-03-13T19:49:42.732Z,68.33
2023-03-13T19:52:10.668Z,68.64
2023-03-13T19:54:38.624Z,68.80
2023-03-13T19:57:11.113Z,68.98
2023-03-13T19:59:40.152Z,69.14
2023-03-13T20:02:09.284Z,68.72
2023-03-13T20:04:37.389Z,69.08
2023-03-13T20:07:05.407Z,69.61
2023-03-13T20:09:35.450Z,69.13
2023-03-13T20:12:03.522Z,68.86
2023-03-13T20:14:32.800Z,69.10
2023-03-13T20:17:00.699Z,69.50
2023-03-13T20:19:29.621Z,69.28
2023-03-13T20:22:03.641Z,69.47
2023-03-13T20:24:33.276Z,68.31
2023-03-13T20:27:01.343Z,68.92
2023-03-13T20:29:29.531Z,69.27
2023-03-13T20:32:00.263Z,69.12
2023-03-13T20:34:29.025Z,69.69
2023-03-13T20:36:59.099Z,69.46
2023-03-13T20:39:27.554Z,69.67
2023-03-13T20:41:56.360Z,69.43
2023-03-13T20:44:24.694Z,69.71
2023-03-13T20:46:52.753Z,69.82
2023-03-13T20:49:22.467Z,69.23
2023-03-13T20:51:51.160Z,69.17
2023-03-13T20:54:19.248Z,69.28
2023-03-13T20:56:47.408Z,69.72
2023-03-13T20:59:15.315Z,70.13
2023-03-13T21:01:44.005Z,69.71
2023-03-13T21:04:12.069Z,70.15
2023-03-13T21:06:41.808Z,70.30
2023-03-13T21:09:09.683Z,70.03
2023-03-13T21:11:37.646Z,69.80
2023-03-13T21:14:05.585Z,69.58
2023-03-13T21:16:33.514Z,69.52
2023-03-13T21:19:01.451Z,69.27
2023-03-13T21:21:29.606Z,69.02
2023-03-13T21:23:58.917Z,69.16
2023-03-13T21:26:26.921Z,68.55
2023-03-13T21:28:54.868Z,67.64
2023-03-13T21:31:22.950Z,68.23
2023-03-13T21:33:51.652Z,67.33
2023-03-13T21:36:21.855Z,68.10
2023-03-13T21:38:51.003Z,67.55
2023-03-13T21:41:23.047Z,68.05
2023-03-13T21:43:51.252Z,67.68
2023-03-13T21:46:19.940Z,67.83
2023-03-13T21:48:48.069Z,67.15
2023-03-13T21:51:16.793Z,67.63
2023-03-13T21:53:45.306Z,66.61
2023-03-13T21:56:15.429Z,67.07
2023-03-13T21:58:46.053Z,66.74
2023-03-13T22:01:15.102Z,67.02
2023-03-13T22:03:43.101Z,66.64
2023-03-13T22:06:14.578Z,67.17
2023-03-13T22:08:42.778Z,66.76
2023-03-13T22:11:11.329Z,66.33
2023-03-13T22:13:39.458Z,67.03
2023-03-13T22:16:11.526Z,67.46
2023-03-13T22:18:40.719Z,67.13
2023-03-13T22:21:09.014Z,66.07
2023-03-13T22:23:36.959Z,65.94
2023-03-13T22:26:05.292Z,66.09
2023-03-13T22:28:33.215Z,66.12
2023-03-13T22:31:01.635Z,66.27
2023-03-13T22:33:30.931Z,67.16
2023-03-13T22:35:59.391Z,66.30
2023-03-13T22:38:27.325Z,66.56
2023-03-13T22:40:59.250Z,67.00
2023-03-13T22:43:27.676Z,66.17
2023-03-13T22:45:55.552Z,65.49
2023-03-13T22:48:23.591Z,65.76
2023-03-13T22:51:01.438Z,66.00
2023-03-13T22:53:29.813Z,65.41
2023-03-13T22:55:57.664Z,65.18
2023-03-13T22:58:25.587Z,65.13
2023-03-13T23:00:53.494Z,65.84
2023-03-13T23:03:22.120Z,65.59
2023-03-13T23:05:50.045Z,65.72
2023-03-13T23:08:19.317Z,66.38
2023-03-13T23:10:48.416Z,66.40
2023-03-13T23:13:16.671Z,66.64
2023-03-13T23:15:59.692Z,66.69
2023-03-13T23:18:28.939Z,66.27
2023-03-13T23:20:56.812Z,66.06
2023-03-13T23:23:26.090Z,66.87
2023-03-13T23:25:54.153Z,66.08
2023-03-13T23:28:22.059Z,66.06
2023-03-13T23:30:49.915Z,65.96
2023-03-13T23:33:17.750Z,66.22
2023-03-13T23:35:45.687Z,66.09
2023-03-13T23:38:13.819Z,66.26
2023-03-13T23:40:43.038Z,66.19
2023-03-13T23:43:10.894Z,66.09
2023-03-13T23:45:39.756Z,65.98
2023-03-13T23:48:07.904Z,65.85
2023-03-13T23:50:37.312Z,65.37
2023-03-13T23:53:05.254Z,65.53
2023-03-13T23:55:33.274Z,67.10
2023-03-13T23:58:02.503Z,66.83
